sensor_id;sensor_type;location;lat;lon;timestamp;pressure;altitude;pressure_sealevel;temperature;humidity
28306;BME280;7516;43.570;1.448;2022-08-03T00:02:05;99305.56;;;27.58;35.78
28306;BME280;7516;43.570;1.448;2022-08-03T00:04:32;99305.97;;;27.65;35.98
28306;BME280;7516;43.570;1.448;2022-08-03T00:07:00;99299.13;;;27.54;35.62
28306;BME280;7516;43.570;1.448;2022-08-03T00:09:27;99303.41;;;27.37;34.25
28306;BME280;7516;43.570;1.448;2022-08-03T00:11:56;99308.00;;;27.36;36.18
28306;BME280;7516;43.570;1.448;2022-08-03T00:14:23;99301.03;;;27.35;36.13
28306;BME280;7516;43.570;1.448;2022-08-03T00:16:52;99303.22;;;27.33;36.55
28306;BME280;7516;43.570;1.448;2022-08-03T00:19:19;99302.19;;;27.29;36.54
28306;BME280;7516;43.570;1.448;2022-08-03T00:25:09;99299.06;;;27.22;37.25
28306;BME280;7516;43.570;1.448;2022-08-03T00:27:37;99300.59;;;27.28;37.48
28306;BME280;7516;43.570;1.448;2022-08-03T00:30:06;99300.72;;;27.18;37.95
28306;BME280;7516;43.570;1.448;2022-08-03T00:32:35;99305.03;;;27.19;37.94
28306;BME280;7516;43.570;1.448;2022-08-03T00:35:02;99298.00;;;27.23;38.28
28306;BME280;7516;43.570;1.448;2022-08-03T00:37:30;99297.47;;;27.21;38.01
28306;BME280;7516;43.570;1.448;2022-08-03T00:39:57;99289.19;;;27.17;38.27
28306;BME280;7516;43.570;1.448;2022-08-03T00:42:25;99286.56;;;27.12;38.78
28306;BME280;7516;43.570;1.448;2022-08-03T00:44:52;99302.28;;;27.05;37.88
28306;BME280;7516;43.570;1.448;2022-08-03T00:47:20;99287.06;;;26.95;39.05
28306;BME280;7516;43.570;1.448;2022-08-03T00:49:48;99292.88;;;27.03;38.54
28306;BME280;7516;43.570;1.448;2022-08-03T00:52:16;99282.50;;;26.96;38.77
28306;BME280;7516;43.570;1.448;2022-08-03T00:54:43;99288.69;;;26.96;38.61
28306;BME280;7516;43.570;1.448;2022-08-03T00:57:11;99285.19;;;26.96;38.85
28306;BME280;7516;43.570;1.448;2022-08-03T00:59:39;99276.06;;;26.92;38.77
28306;BME280;7516;43.570;1.448;2022-08-03T01:02:06;99273.41;;;26.68;38.65
28306;BME280;7516;43.570;1.448;2022-08-03T01:04:34;99274.94;;;26.74;39.51
28306;BME280;7516;43.570;1.448;2022-08-03T01:13:56;99273.13;;;26.70;39.86
28306;BME280;7516;43.570;1.448;2022-08-03T01:16:32;99279.44;;;26.60;39.83
28306;BME280;7516;43.570;1.448;2022-08-03T01:19:15;99281.16;;;26.51;40.01
28306;BME280;7516;43.570;1.448;2022-08-03T01:22:05;99276.28;;;26.53;40.10
28306;BME280;7516;43.570;1.448;2022-08-03T01:24:53;99278.81;;;26.44;40.35
28306;BME280;7516;43.570;1.448;2022-08-03T01:27:28;99276.94;;;26.45;40.27
28306;BME280;7516;43.570;1.448;2022-08-03T01:30:03;99270.97;;;26.48;39.85
28306;BME280;7516;43.570;1.448;2022-08-03T01:32:36;99270.50;;;26.41;39.93
28306;BME280;7516;43.570;1.448;2022-08-03T01:35:09;99265.13;;;26.41;40.02
28306;BME280;7516;43.570;1.448;2022-08-03T01:37:40;99264.13;;;26.37;40.48
28306;BME280;7516;43.570;1.448;2022-08-03T01:40:10;99256.34;;;26.35;40.35
28306;BME280;7516;43.570;1.448;2022-08-03T01:42:40;99264.78;;;26.23;40.51
28306;BME280;7516;43.570;1.448;2022-08-03T01:45:13;99262.16;;;26.18;40.73
28306;BME280;7516;43.570;1.448;2022-08-03T01:47:44;99269.00;;;26.06;41.50
28306;BME280;7516;43.570;1.448;2022-08-03T01:50:13;99263.97;;;25.99;41.57
28306;BME280;7516;43.570;1.448;2022-08-03T01:52:43;99259.06;;;25.77;41.24
28306;BME280;7516;43.570;1.448;2022-08-03T01:55:13;99265.56;;;25.71;42.06
28306;BME280;7516;43.570;1.448;2022-08-03T01:57:44;99267.81;;;25.88;42.33
28306;BME280;7516;43.570;1.448;2022-08-03T02:00:16;99272.25;;;25.74;41.38
28306;BME280;7516;43.570;1.448;2022-08-03T02:02:47;99265.66;;;25.90;41.89
28306;BME280;7516;43.570;1.448;2022-08-03T02:05:16;99260.28;;;25.90;42.00
28306;BME280;7516;43.570;1.448;2022-08-03T02:07:47;99258.66;;;25.94;41.76
28306;BME280;7516;43.570;1.448;2022-08-03T02:10:18;99266.72;;;25.94;41.89
28306;BME280;7516;43.570;1.448;2022-08-03T02:12:48;99254.13;;;25.90;42.16
28306;BME280;7516;43.570;1.448;2022-08-03T02:15:19;99259.81;;;25.83;42.06
28306;BME280;7516;43.570;1.448;2022-08-03T02:17:48;99257.94;;;25.83;42.27
28306;BME280;7516;43.570;1.448;2022-08-03T02:20:17;99261.44;;;25.84;42.27
28306;BME280;7516;43.570;1.448;2022-08-03T02:22:46;99265.94;;;25.89;42.27
28306;BME280;7516;43.570;1.448;2022-08-03T02:25:14;99271.59;;;25.87;42.37
28306;BME280;7516;43.570;1.448;2022-08-03T02:27:47;99274.00;;;25.89;42.27
28306;BME280;7516;43.570;1.448;2022-08-03T02:30:19;99280.97;;;25.90;41.40
28306;BME280;7516;43.570;1.448;2022-08-03T02:32:53;99277.75;;;25.88;41.50
28306;BME280;7516;43.570;1.448;2022-08-03T02:35:23;99285.06;;;25.82;40.68
28306;BME280;7516;43.570;1.448;2022-08-03T02:37:56;99277.84;;;25.77;40.64
28306;BME280;7516;43.570;1.448;2022-08-03T02:40:28;99283.09;;;25.64;41.18
28306;BME280;7516;43.570;1.448;2022-08-03T02:42:59;99285.25;;;25.62;40.87
28306;BME280;7516;43.570;1.448;2022-08-03T02:45:31;99288.50;;;25.54;40.70
28306;BME280;7516;43.570;1.448;2022-08-03T02:48:03;99288.03;;;25.46;40.95
28306;BME280;7516;43.570;1.448;2022-08-03T02:50:33;99288.56;;;25.43;40.42
28306;BME280;7516;43.570;1.448;2022-08-03T02:53:02;99281.59;;;25.42;40.42
28306;BME280;7516;43.570;1.448;2022-08-03T02:55:30;99276.34;;;25.32;40.48
28306;BME280;7516;43.570;1.448;2022-08-03T02:58:00;99280.63;;;25.28;41.08
28306;BME280;7516;43.570;1.448;2022-08-03T03:00:31;99272.69;;;25.13;41.82
28306;BME280;7516;43.570;1.448;2022-08-03T03:03:00;99279.34;;;25.21;41.52
28306;BME280;7516;43.570;1.448;2022-08-03T03:05:28;99276.94;;;25.19;41.63
28306;BME280;7516;43.570;1.448;2022-08-03T03:07:56;99280.19;;;25.16;42.30
28306;BME280;7516;43.570;1.448;2022-08-03T03:10:25;99279.38;;;25.16;41.68
28306;BME280;7516;43.570;1.448;2022-08-03T03:12:55;99283.44;;;25.13;42.43
28306;BME280;7516;43.570;1.448;2022-08-03T03:15:24;99274.59;;;25.07;41.82
28306;BME280;7516;43.570;1.448;2022-08-03T03:17:54;99281.34;;;25.05;42.58
28306;BME280;7516;43.570;1.448;2022-08-03T03:20:23;99277.59;;;25.01;42.01
28306;BME280;7516;43.570;1.448;2022-08-03T03:22:51;99282.44;;;24.99;41.88
28306;BME280;7516;43.570;1.448;2022-08-03T03:25:20;99277.88;;;24.99;43.05
28306;BME280;7516;43.570;1.448;2022-08-03T03:27:49;99286.22;;;24.98;42.82
28306;BME280;7516;43.570;1.448;2022-08-03T03:30:17;99284.59;;;24.97;43.09
28306;BME280;7516;43.570;1.448;2022-08-03T03:32:44;99278.19;;;24.88;43.40
28306;BME280;7516;43.570;1.448;2022-08-03T03:35:13;99270.69;;;24.85;43.25
28306;BME280;7516;43.570;1.448;2022-08-03T03:37:41;99269.34;;;24.87;42.81
28306;BME280;7516;43.570;1.448;2022-08-03T03:40:10;99276.03;;;24.85;43.46
28306;BME280;7516;43.570;1.448;2022-08-03T03:42:38;99284.22;;;24.59;43.30
28306;BME280;7516;43.570;1.448;2022-08-03T03:45:07;99285.84;;;24.50;42.22
28306;BME280;7516;43.570;1.448;2022-08-03T03:47:35;99289.13;;;24.32;44.14
28306;BME280;7516;43.570;1.448;2022-08-03T03:50:04;99286.94;;;24.44;44.03
28306;BME280;7516;43.570;1.448;2022-08-03T03:52:33;99284.75;;;24.61;43.98
28306;BME280;7516;43.570;1.448;2022-08-03T03:55:01;99291.16;;;24.65;43.49
28306;BME280;7516;43.570;1.448;2022-08-03T03:57:29;99297.16;;;24.17;43.17
28306;BME280;7516;43.570;1.448;2022-08-03T03:59:56;99292.66;;;23.92;43.73
28306;BME280;7516;43.570;1.448;2022-08-03T04:02:24;99298.28;;;23.85;42.98
28306;BME280;7516;43.570;1.448;2022-08-03T04:04:51;99297.19;;;23.46;47.21
28306;BME280;7516;43.570;1.448;2022-08-03T04:07:45;99292.28;;;23.07;46.72
28306;BME280;7516;43.570;1.448;2022-08-03T04:10:36;99295.81;;;23.33;47.10
28306;BME280;7516;43.570;1.448;2022-08-03T04:13:30;99288.66;;;23.64;46.69
28306;BME280;7516;43.570;1.448;2022-08-03T04:15:59;99292.94;;;23.70;46.37
28306;BME280;7516;43.570;1.448;2022-08-03T04:18:28;99295.09;;;23.73;46.30
28306;BME280;7516;43.570;1.448;2022-08-03T04:21:00;99303.63;;;23.95;45.62
28306;BME280;7516;43.570;1.448;2022-08-03T04:23:32;99308.44;;;23.93;44.91
28306;BME280;7516;43.570;1.448;2022-08-03T04:26:02;99311.88;;;23.38;46.90
28306;BME280;7516;43.570;1.448;2022-08-03T04:28:33;99307.50;;;22.92;47.90
28306;BME280;7516;43.570;1.448;2022-08-03T04:31:03;99304.31;;;23.05;48.24
28306;BME280;7516;43.570;1.448;2022-08-03T04:33:32;99307.59;;;23.37;48.72
28306;BME280;7516;43.570;1.448;2022-08-03T04:36:03;99311.63;;;23.45;46.30
28306;BME280;7516;43.570;1.448;2022-08-03T04:38:34;99321.44;;;23.04;47.55
28306;BME280;7516;43.570;1.448;2022-08-03T04:41:03;99325.50;;;22.59;48.40
28306;BME280;7516;43.570;1.448;2022-08-03T04:43:32;99313.91;;;22.38;48.68
28306;BME280;7516;43.570;1.448;2022-08-03T04:46:01;99317.69;;;22.42;50.03
28306;BME280;7516;43.570;1.448;2022-08-03T04:48:29;99320.06;;;22.44;49.39
28306;BME280;7516;43.570;1.448;2022-08-03T04:50:57;99324.84;;;22.84;48.92
28306;BME280;7516;43.570;1.448;2022-08-03T04:53:26;99337.16;;;22.85;47.41
28306;BME280;7516;43.570;1.448;2022-08-03T04:56:02;99331.41;;;23.34;48.67
28306;BME280;7516;43.570;1.448;2022-08-03T04:58:29;99330.13;;;23.56;47.22
28306;BME280;7516;43.570;1.448;2022-08-03T05:00:57;99334.44;;;23.83;47.00
28306;BME280;7516;43.570;1.448;2022-08-03T05:03:24;99338.69;;;23.69;46.70
28306;BME280;7516;43.570;1.448;2022-08-03T05:05:52;99348.06;;;23.76;46.49
28306;BME280;7516;43.570;1.448;2022-08-03T05:08:20;99352.59;;;23.76;46.65
28306;BME280;7516;43.570;1.448;2022-08-03T05:10:47;99351.81;;;23.95;46.02
28306;BME280;7516;43.570;1.448;2022-08-03T05:13:16;99348.63;;;23.98;46.11
28306;BME280;7516;43.570;1.448;2022-08-03T05:15:44;99359.03;;;24.05;45.85
28306;BME280;7516;43.570;1.448;2022-08-03T05:18:11;99356.09;;;24.12;46.65
28306;BME280;7516;43.570;1.448;2022-08-03T05:20:39;99363.31;;;24.16;46.17
28306;BME280;7516;43.570;1.448;2022-08-03T05:23:06;99363.34;;;24.21;46.34
28306;BME280;7516;43.570;1.448;2022-08-03T05:25:34;99358.22;;;24.20;46.46
28306;BME280;7516;43.570;1.448;2022-08-03T05:28:01;99359.84;;;24.31;46.11
28306;BME280;7516;43.570;1.448;2022-08-03T05:30:30;99362.25;;;24.32;46.29
28306;BME280;7516;43.570;1.448;2022-08-03T05:32:58;99359.06;;;24.25;45.85
28306;BME280;7516;43.570;1.448;2022-08-03T05:35:26;99357.47;;;24.24;45.96
28306;BME280;7516;43.570;1.448;2022-08-03T05:37:53;99369.50;;;24.27;45.92
28306;BME280;7516;43.570;1.448;2022-08-03T05:40:21;99365.50;;;24.24;45.68
28306;BME280;7516;43.570;1.448;2022-08-03T05:42:48;99367.38;;;24.24;45.93
28306;BME280;7516;43.570;1.448;2022-08-03T05:45:16;99372.19;;;24.27;45.62
28306;BME280;7516;43.570;1.448;2022-08-03T05:47:45;99370.56;;;24.16;46.66
28306;BME280;7516;43.570;1.448;2022-08-03T05:50:13;99372.19;;;24.27;46.58
28306;BME280;7516;43.570;1.448;2022-08-03T05:52:41;99368.97;;;24.35;46.29
28306;BME280;7516;43.570;1.448;2022-08-03T05:55:09;99370.00;;;24.49;46.43
28306;BME280;7516;43.570;1.448;2022-08-03T05:57:39;99374.25;;;24.55;45.44
28306;BME280;7516;43.570;1.448;2022-08-03T06:00:08;99376.38;;;24.63;45.29
28306;BME280;7516;43.570;1.448;2022-08-03T06:02:36;99379.94;;;24.08;44.96
28306;BME280;7516;43.570;1.448;2022-08-03T06:05:06;99376.19;;;23.74;45.73
28306;BME280;7516;43.570;1.448;2022-08-03T06:07:35;99375.09;;;23.65;45.53
28306;BME280;7516;43.570;1.448;2022-08-03T06:10:03;99372.69;;;23.63;46.25
28306;BME280;7516;43.570;1.448;2022-08-03T06:12:31;99376.94;;;23.59;45.75
28306;BME280;7516;43.570;1.448;2022-08-03T06:15:01;99382.84;;;23.56;45.81
28306;BME280;7516;43.570;1.448;2022-08-03T06:17:29;99380.19;;;23.56;46.05
28306;BME280;7516;43.570;1.448;2022-08-03T06:19:57;99384.97;;;23.54;46.72
28306;BME280;7516;43.570;1.448;2022-08-03T06:22:26;99387.09;;;23.52;46.39
28306;BME280;7516;43.570;1.448;2022-08-03T06:24:53;99383.38;;;23.53;46.88
28306;BME280;7516;43.570;1.448;2022-08-03T06:27:21;99387.41;;;23.55;46.88
28306;BME280;7516;43.570;1.448;2022-08-03T06:29:48;99386.03;;;23.58;47.66
28306;BME280;7516;43.570;1.448;2022-08-03T06:32:16;99391.69;;;23.56;47.05
28306;BME280;7516;43.570;1.448;2022-08-03T06:34:43;99390.06;;;23.60;48.10
28306;BME280;7516;43.570;1.448;2022-08-03T06:37:11;99397.31;;;23.65;47.66
28306;BME280;7516;43.570;1.448;2022-08-03T06:39:40;99400.00;;;23.65;48.62
28306;BME280;7516;43.570;1.448;2022-08-03T06:42:07;99404.81;;;23.73;48.68
28306;BME280;7516;43.570;1.448;2022-08-03T06:44:35;99405.63;;;23.74;48.22
28306;BME280;7516;43.570;1.448;2022-08-03T06:47:03;99411.22;;;23.77;48.91
28306;BME280;7516;43.570;1.448;2022-08-03T06:49:31;99415.53;;;23.83;47.29
28306;BME280;7516;43.570;1.448;2022-08-03T06:51:58;99408.56;;;23.87;48.35
28306;BME280;7516;43.570;1.448;2022-08-03T06:54:26;99411.78;;;23.94;48.06
28306;BME280;7516;43.570;1.448;2022-08-03T06:56:55;99406.72;;;23.98;48.36
28306;BME280;7516;43.570;1.448;2022-08-03T06:59:22;99419.56;;;24.06;48.68
28306;BME280;7516;43.570;1.448;2022-08-03T07:01:50;99416.63;;;24.08;46.92
28306;BME280;7516;43.570;1.448;2022-08-03T07:04:17;99424.09;;;24.11;47.54
28306;BME280;7516;43.570;1.448;2022-08-03T07:06:45;99427.84;;;24.20;46.55
28306;BME280;7516;43.570;1.448;2022-08-03T07:09:12;99438.88;;;24.28;46.83
28306;BME280;7516;43.570;1.448;2022-08-03T07:11:40;99433.78;;;24.32;46.15
28306;BME280;7516;43.570;1.448;2022-08-03T07:14:09;99427.34;;;24.38;46.38
28306;BME280;7516;43.570;1.448;2022-08-03T07:16:37;99432.72;;;24.43;45.97
28306;BME280;7516;43.570;1.448;2022-08-03T07:19:04;99428.94;;;24.49;47.06
28306;BME280;7516;43.570;1.448;2022-08-03T07:21:31;99438.06;;;24.58;47.22
28306;BME280;7516;43.570;1.448;2022-08-03T07:23:59;99431.88;;;24.63;46.72
28306;BME280;7516;43.570;1.448;2022-08-03T07:26:26;99427.56;;;24.72;47.36
28306;BME280;7516;43.570;1.448;2022-08-03T07:28:54;99422.97;;;24.88;48.27
28306;BME280;7516;43.570;1.448;2022-08-03T07:31:23;99419.75;;;25.01;48.12
28306;BME280;7516;43.570;1.448;2022-08-03T07:33:50;99415.41;;;25.15;49.20
28306;BME280;7516;43.570;1.448;2022-08-03T07:36:18;99416.72;;;25.23;48.70
28306;BME280;7516;43.570;1.448;2022-08-03T07:38:45;99419.63;;;25.31;49.42
28306;BME280;7516;43.570;1.448;2022-08-03T07:41:13;99423.06;;;25.37;48.54
28306;BME280;7516;43.570;1.448;2022-08-03T07:43:40;99425.97;;;25.45;48.94
28306;BME280;7516;43.570;1.448;2022-08-03T07:46:08;99434.03;;;25.51;49.16
28306;BME280;7516;43.570;1.448;2022-08-03T07:48:36;99429.69;;;25.55;48.19
28306;BME280;7516;43.570;1.448;2022-08-03T07:51:05;99432.63;;;25.63;49.10
28306;BME280;7516;43.570;1.448;2022-08-03T07:53:32;99426.66;;;25.71;48.83
28306;BME280;7516;43.570;1.448;2022-08-03T07:56:00;99436.59;;;25.76;48.40
28306;BME280;7516;43.570;1.448;2022-08-03T07:58:27;99434.38;;;25.83;48.30
28306;BME280;7516;43.570;1.448;2022-08-03T08:00:55;99432.22;;;25.85;48.25
28306;BME280;7516;43.570;1.448;2022-08-03T08:03:22;99439.41;;;25.95;48.68
28306;BME280;7516;43.570;1.448;2022-08-03T08:05:53;99435.34;;;26.02;48.40
28306;BME280;7516;43.570;1.448;2022-08-03T08:08:20;99440.13;;;26.05;47.82
28306;BME280;7516;43.570;1.448;2022-08-03T08:10:48;99445.94;;;26.17;48.11
28306;BME280;7516;43.570;1.448;2022-08-03T08:13:15;99443.75;;;26.24;48.31
28306;BME280;7516;43.570;1.448;2022-08-03T08:15:43;99440.94;;;26.40;49.00
28306;BME280;7516;43.570;1.448;2022-08-03T08:18:10;99447.84;;;26.51;47.98
28306;BME280;7516;43.570;1.448;2022-08-03T08:20:38;99441.28;;;26.62;48.29
28306;BME280;7516;43.570;1.448;2022-08-03T08:23:07;99445.53;;;26.68;48.47
28306;BME280;7516;43.570;1.448;2022-08-03T08:25:35;99450.72;;;26.83;48.41
28306;BME280;7516;43.570;1.448;2022-08-03T08:28:03;99447.41;;;26.96;48.33
28306;BME280;7516;43.570;1.448;2022-08-03T08:30:33;99456.47;;;27.06;48.20
28306;BME280;7516;43.570;1.448;2022-08-03T08:33:00;99459.59;;;27.13;47.27
28306;BME280;7516;43.570;1.448;2022-08-03T08:35:28;99462.22;;;27.18;46.85
28306;BME280;7516;43.570;1.448;2022-08-03T08:37:56;99458.91;;;27.26;47.07
28306;BME280;7516;43.570;1.448;2022-08-03T08:40:27;99457.25;;;27.30;46.65
28306;BME280;7516;43.570;1.448;2022-08-03T08:42:54;99450.66;;;27.41;46.50
28306;BME280;7516;43.570;1.448;2022-08-03T08:45:22;99447.78;;;27.56;46.56
28306;BME280;7516;43.570;1.448;2022-08-03T08:47:50;99445.97;;;27.70;46.55
28306;BME280;7516;43.570;1.448;2022-08-03T08:50:19;99451.56;;;27.74;46.13
28306;BME280;7516;43.570;1.448;2022-08-03T08:52:48;99450.69;;;27.79;45.31
28306;BME280;7516;43.570;1.448;2022-08-03T08:55:20;99452.75;;;27.87;45.34
28306;BME280;7516;43.570;1.448;2022-08-03T08:57:51;99455.91;;;27.89;45.85
28306;BME280;7516;43.570;1.448;2022-08-03T09:00:21;99462.47;;;28.01;45.24
28306;BME280;7516;43.570;1.448;2022-08-03T09:02:49;99454.44;;;28.15;45.62
28306;BME280;7516;43.570;1.448;2022-08-03T09:05:17;99461.28;;;28.26;44.73
28306;BME280;7516;43.570;1.448;2022-08-03T09:07:46;99464.50;;;28.28;44.62
28306;BME280;7516;43.570;1.448;2022-08-03T09:10:15;99467.03;;;28.38;44.06
28306;BME280;7516;43.570;1.448;2022-08-03T09:12:46;99473.13;;;28.44;43.84
28306;BME280;7516;43.570;1.448;2022-08-03T09:15:21;99471.19;;;28.50;43.73
28306;BME280;7516;43.570;1.448;2022-08-03T09:17:50;99467.34;;;28.51;44.10
28306;BME280;7516;43.570;1.448;2022-08-03T09:20:19;99464.47;;;28.61;44.29
28306;BME280;7516;43.570;1.448;2022-08-03T09:22:56;99466.81;;;28.67;42.89
28306;BME280;7516;43.570;1.448;2022-08-03T09:25:31;99461.47;;;28.81;43.42
28306;BME280;7516;43.570;1.448;2022-08-03T09:28:08;99465.94;;;28.86;43.31
28306;BME280;7516;43.570;1.448;2022-08-03T09:30:39;99472.66;;;28.88;43.38
28306;BME280;7516;43.570;1.448;2022-08-03T09:33:08;99476.38;;;28.92;42.95
28306;BME280;7516;43.570;1.448;2022-08-03T09:35:40;99479.19;;;29.01;42.11
28306;BME280;7516;43.570;1.448;2022-08-03T09:38:09;99470.09;;;29.10;42.26
28306;BME280;7516;43.570;1.448;2022-08-03T09:40:37;99467.38;;;29.10;42.11
28306;BME280;7516;43.570;1.448;2022-08-03T09:43:05;99471.88;;;29.15;42.82
28306;BME280;7516;43.570;1.448;2022-08-03T09:45:34;99465.97;;;29.27;41.71
28306;BME280;7516;43.570;1.448;2022-08-03T09:48:22;99469.06;;;29.34;41.41
28306;BME280;7516;43.570;1.448;2022-08-03T09:50:51;99473.09;;;29.36;42.00
28306;BME280;7516;43.570;1.448;2022-08-03T09:53:20;99474.66;;;29.51;41.54
28306;BME280;7516;43.570;1.448;2022-08-03T09:55:52;99465.25;;;29.62;40.29
28306;BME280;7516;43.570;1.448;2022-08-03T09:58:21;99471.75;;;29.61;40.15
28306;BME280;7516;43.570;1.448;2022-08-03T10:00:54;99471.22;;;29.73;40.59
28306;BME280;7516;43.570;1.448;2022-08-03T10:03:24;99465.56;;;29.83;38.98
28306;BME280;7516;43.570;1.448;2022-08-03T10:05:52;99470.59;;;29.89;38.85
28306;BME280;7516;43.570;1.448;2022-08-03T10:08:20;99465.56;;;29.97;38.61
28306;BME280;7516;43.570;1.448;2022-08-03T10:10:49;99461.63;;;30.03;38.03
28306;BME280;7516;43.570;1.448;2022-08-03T10:13:19;99463.09;;;30.09;37.61
28306;BME280;7516;43.570;1.448;2022-08-03T10:15:47;99460.09;;;30.10;37.21
28306;BME280;7516;43.570;1.448;2022-08-03T10:18:15;99467.59;;;30.36;36.36
28306;BME280;7516;43.570;1.448;2022-08-03T10:20:48;99468.22;;;30.33;36.05
28306;BME280;7516;43.570;1.448;2022-08-03T10:23:16;99470.34;;;30.44;35.72
28306;BME280;7516;43.570;1.448;2022-08-03T10:25:48;99469.13;;;30.50;35.66
28306;BME280;7516;43.570;1.448;2022-08-03T10:28:19;99455.59;;;30.50;36.24
28306;BME280;7516;43.570;1.448;2022-08-03T10:30:49;99454.88;;;30.58;35.97
28306;BME280;7516;43.570;1.448;2022-08-03T10:33:19;99457.78;;;30.71;35.51
28306;BME280;7516;43.570;1.448;2022-08-03T10:35:54;99455.13;;;30.79;34.81
28306;BME280;7516;43.570;1.448;2022-08-03T10:38:28;99455.91;;;30.80;34.71
28306;BME280;7516;43.570;1.448;2022-08-03T10:40:57;99464.88;;;30.89;33.69
28306;BME280;7516;43.570;1.448;2022-08-03T10:43:27;99453.94;;;30.94;33.23
28306;BME280;7516;43.570;1.448;2022-08-03T10:45:57;99450.59;;;31.05;33.78
28306;BME280;7516;43.570;1.448;2022-08-03T10:48:25;99449.34;;;31.03;33.58
28306;BME280;7516;43.570;1.448;2022-08-03T10:50:55;99452.09;;;31.12;33.53
28306;BME280;7516;43.570;1.448;2022-08-03T10:53:36;99446.72;;;31.29;33.13
28306;BME280;7516;43.570;1.448;2022-08-03T10:56:04;99439.72;;;31.28;32.56
28306;BME280;7516;43.570;1.448;2022-08-03T10:58:51;99446.75;;;31.37;32.46
28306;BME280;7516;43.570;1.448;2022-08-03T11:04:16;99446.09;;;31.49;30.68
28306;BME280;7516;43.570;1.448;2022-08-03T11:06:46;99442.63;;;31.49;29.64
28306;BME280;7516;43.570;1.448;2022-08-03T11:09:15;99443.78;;;31.65;29.84
28306;BME280;7516;43.570;1.448;2022-08-03T11:11:44;99441.41;;;31.81;29.96
28306;BME280;7516;43.570;1.448;2022-08-03T11:14:14;99444.25;;;31.84;30.23
28306;BME280;7516;43.570;1.448;2022-08-03T11:16:44;99440.91;;;31.87;29.93
28306;BME280;7516;43.570;1.448;2022-08-03T11:19:14;99433.75;;;31.91;30.54
28306;BME280;7516;43.570;1.448;2022-08-03T11:21:57;99434.66;;;32.04;30.43
28306;BME280;7516;43.570;1.448;2022-08-03T11:24:58;99430.53;;;32.06;30.84
28306;BME280;7516;43.570;1.448;2022-08-03T11:27:30;99422.69;;;32.13;30.25
28306;BME280;7516;43.570;1.448;2022-08-03T11:30:01;99423.16;;;32.15;30.20
28306;BME280;7516;43.570;1.448;2022-08-03T11:32:56;99428.78;;;32.28;30.67
28306;BME280;7516;43.570;1.448;2022-08-03T11:35:25;99423.16;;;32.33;29.76
28306;BME280;7516;43.570;1.448;2022-08-03T11:38:19;99417.91;;;32.36;29.65
28306;BME280;7516;43.570;1.448;2022-08-03T11:40:51;99422.53;;;32.36;29.48
28306;BME280;7516;43.570;1.448;2022-08-03T11:43:43;99416.69;;;32.63;29.08
28306;BME280;7516;43.570;1.448;2022-08-03T11:46:12;99410.09;;;32.73;28.97
28306;BME280;7516;43.570;1.448;2022-08-03T11:48:45;99400.19;;;32.77;27.98
28306;BME280;7516;43.570;1.448;2022-08-03T11:51:21;99400.22;;;32.68;29.65
28306;BME280;7516;43.570;1.448;2022-08-03T11:53:54;99404.34;;;32.74;28.59
28306;BME280;7516;43.570;1.448;2022-08-03T11:56:22;99405.31;;;32.78;29.21
28306;BME280;7516;43.570;1.448;2022-08-03T11:58:51;99398.41;;;32.90;28.69
28306;BME280;7516;43.570;1.448;2022-08-03T12:01:20;99389.72;;;32.96;27.93
28306;BME280;7516;43.570;1.448;2022-08-03T12:03:47;99395.22;;;33.08;28.04
28306;BME280;7516;43.570;1.448;2022-08-03T12:06:17;99384.16;;;33.22;27.82
28306;BME280;7516;43.570;1.448;2022-08-03T12:08:45;99389.94;;;33.41;27.65
28306;BME280;7516;43.570;1.448;2022-08-03T12:11:15;99381.91;;;33.45;28.28
28306;BME280;7516;43.570;1.448;2022-08-03T12:13:43;99380.44;;;33.47;28.38
28306;BME280;7516;43.570;1.448;2022-08-03T12:16:17;99388.84;;;33.54;27.88
28306;BME280;7516;43.570;1.448;2022-08-03T12:18:45;99387.91;;;33.71;27.38
28306;BME280;7516;43.570;1.448;2022-08-03T12:21:12;99384.25;;;33.76;27.30
28306;BME280;7516;43.570;1.448;2022-08-03T12:23:41;99386.09;;;33.84;27.58
28306;BME280;7516;43.570;1.448;2022-08-03T12:26:09;99387.91;;;33.92;27.31
28306;BME280;7516;43.570;1.448;2022-08-03T12:28:46;99387.00;;;33.88;27.58
28306;BME280;7516;43.570;1.448;2022-08-03T12:31:14;99377.03;;;33.92;27.46
28306;BME280;7516;43.570;1.448;2022-08-03T12:33:58;99386.00;;;34.05;27.60
28306;BME280;7516;43.570;1.448;2022-08-03T12:36:27;99385.50;;;34.23;27.01
28306;BME280;7516;43.570;1.448;2022-08-03T12:38:56;99381.09;;;34.19;28.17
28306;BME280;7516;43.570;1.448;2022-08-03T12:41:29;99386.38;;;34.36;27.92
28306;BME280;7516;43.570;1.448;2022-08-03T12:43:58;99381.81;;;34.40;27.90
28306;BME280;7516;43.570;1.448;2022-08-03T12:46:30;99387.63;;;34.51;27.74
28306;BME280;7516;43.570;1.448;2022-08-03T12:49:06;99380.59;;;34.50;27.42
28306;BME280;7516;43.570;1.448;2022-08-03T12:51:35;99375.13;;;34.50;27.01
28306;BME280;7516;43.570;1.448;2022-08-03T12:54:04;99370.47;;;34.50;27.67
28306;BME280;7516;43.570;1.448;2022-08-03T12:56:31;99358.13;;;34.65;27.95
28306;BME280;7516;43.570;1.448;2022-08-03T12:59:00;99369.72;;;34.86;27.22
28306;BME280;7516;43.570;1.448;2022-08-03T13:01:48;99371.88;;;34.93;26.67
28306;BME280;7516;43.570;1.448;2022-08-03T13:04:25;99365.88;;;34.99;26.37
28306;BME280;7516;43.570;1.448;2022-08-03T13:07:00;99357.22;;;34.97;26.47
28306;BME280;7516;43.570;1.448;2022-08-03T13:09:28;99356.97;;;35.02;25.98
28306;BME280;7516;43.570;1.448;2022-08-03T13:12:07;99361.63;;;35.14;25.97
28306;BME280;7516;43.570;1.448;2022-08-03T13:14:36;99361.28;;;35.28;25.67
28306;BME280;7516;43.570;1.448;2022-08-03T13:17:05;99351.72;;;35.22;25.46
28306;BME280;7516;43.570;1.448;2022-08-03T13:19:33;99348.88;;;35.30;24.88
28306;BME280;7516;43.570;1.448;2022-08-03T13:22:09;99345.34;;;35.42;24.18
28306;BME280;7516;43.570;1.448;2022-08-03T13:24:36;99345.53;;;35.49;23.98
28306;BME280;7516;43.570;1.448;2022-08-03T13:27:04;99345.78;;;35.72;24.33
28306;BME280;7516;43.570;1.448;2022-08-03T13:29:32;99344.41;;;35.78;23.78
28306;BME280;7516;43.570;1.448;2022-08-03T13:32:02;99344.50;;;35.81;23.64
28306;BME280;7516;43.570;1.448;2022-08-03T13:34:30;99341.44;;;35.83;22.85
28306;BME280;7516;43.570;1.448;2022-08-03T13:36:57;99344.91;;;35.96;23.33
28306;BME280;7516;43.570;1.448;2022-08-03T13:39:25;99341.09;;;36.16;23.25